Aduana, Mexico

6:23 AM EST on November 23, 2017 (GMT -0500)
Cancun International | | Change Station

Elev 23 ft 21.03 °N, 86.87 °W | Updated 37 minutes ago

Mostly Cloudy
Mostly Cloudy
68 °F
Feels Like 68 °F
N
0
Wind Variable Wind from North

Today
High -- | Low -- °F
--% Chance of Precip.
Yesterday
High -- | Low -- °F
Precip. -- in
Pressure 29.91 in
Visibility 5.0 miles
Clouds Scattered Clouds 1500 ft
Mostly Cloudy 7000 ft
Mostly Cloudy 25000 ft
Dew Point 68 °F
Humidity 100%
Rainfall 0.45 in
Snow Depth Not available.
7:02 AM 6:04 PM
Waxing Crescent, 21% visible
METAR MMUN 231046Z 00000KT 5SM SCT015 BKN070 BKN250 20/20 A2991 RMK 8/178 HZ -RA E45
Pressure 29.91 in
Visibility 5.0 miles
Clouds Scattered Clouds 1500 ft
Mostly Cloudy 7000 ft
Mostly Cloudy 25000 ft
Dew Point 68 °F
Humidity 100%
Rainfall 0.45 in
Snow Depth Not available.
7:02 AM 6:04 PM
Waxing Crescent, 21% visible
METAR MMUN 231046Z 00000KT 5SM SCT015 BKN070 BKN250 20/20 A2991 RMK 8/178 HZ -RA E45

Get Severe Weather Alerts

Thanks for signing up!

Be on the lookout for a verification email in your inbox.

You'll start receiving the daily forecast at 6 AM.

×

10-Day Weather Forecast

No radar image for this location.
×

Almanac

Astronomy

Nov. 23, 2017 Rise Set
Actual Time
Civil Twilight
Nautical Twilight
Astronomical Twilight
Moon
Length of Visible Light
Length of Day
Tomorrow will be .
, % of the Moon is Illuminated

Today's Extremes

Country Highs Country Lows

Community

WunderPhotos

Category 6

Welcome to Category 6. This is the collective home for Weather Underground's featured writeups by Dr. Jeff Masters (right), Bob Henson (left), Chris Burt, and other regular contributors.

Nearby

Air Quality

  Air Quality AQ Index Pollutant
Not available.

Snow Depth

Station Depth Elevation

Earthquake Activity

City Distance Mag. Time & Date
Minimum magnitude displayed is 2.5.

Coastal Water Temperatures

Place Temperature

Stations

Nearby Weather Stations

Station Location Temp. Windchill Dew Point Humidity Wind Precip. Elev Updated Type